createdAt,value
2022-09-28T00:00:42.008Z,12.65
2022-09-28T00:03:09.696Z,13.02
2022-09-28T00:05:36.336Z,14.05
2022-09-28T00:08:03.024Z,13.48
2022-09-28T00:10:29.618Z,13.68
2022-09-28T00:12:56.309Z,13.95
2022-09-28T00:15:24.625Z,13.18
2022-09-28T00:17:51.241Z,13.45
2022-09-28T00:20:19.327Z,13.20
2022-09-28T00:22:45.877Z,12.80
2022-09-28T00:25:12.486Z,13.43
2022-09-28T00:27:39.365Z,13.65
2022-09-28T00:30:07.028Z,13.32
2022-09-28T00:32:33.683Z,13.40
2022-09-28T00:35:00.284Z,13.18
2022-09-28T00:37:26.927Z,13.23
2022-09-28T00:39:53.584Z,14.80
2022-09-28T00:42:22.470Z,14.45
2022-09-28T00:44:53.096Z,14.05
2022-09-28T00:47:26.224Z,14.40
2022-09-28T00:50:00.208Z,14.48
2022-09-28T00:52:38.381Z,13.68
2022-09-28T00:55:08.819Z,13.90
2022-09-28T00:57:37.641Z,13.90
2022-09-28T01:00:05.837Z,14.13
2022-09-28T01:02:32.759Z,14.13
2022-09-28T01:05:01.393Z,13.95
2022-09-28T01:07:28.726Z,12.90
2022-09-28T01:09:56.282Z,13.90
2022-09-28T01:12:22.966Z,13.25
2022-09-28T01:14:50.651Z,12.45
2022-09-28T01:17:25.932Z,13.30
2022-09-28T01:20:07.242Z,14.48
2022-09-28T01:23:01.202Z,14.43
2022-09-28T01:25:47.910Z,14.40
2022-09-28T01:28:16.199Z,14.80
2022-09-28T01:31:03.313Z,14.07
2022-09-28T01:33:48.228Z,14.85
2022-09-28T01:36:29.881Z,15.45
2022-09-28T01:39:02.399Z,16.70
2022-09-28T01:41:36.481Z,17.08
2022-09-28T01:44:08.650Z,17.40
2022-09-28T01:46:47.953Z,17.75
2022-09-28T01:49:22.781Z,17.90
2022-09-28T01:52:17.230Z,17.70
2022-09-28T01:55:15.422Z,18.90
2022-09-28T01:57:53.001Z,19.75
2022-09-28T02:00:21.150Z,19.20
2022-09-28T02:03:12.490Z,19.70
2022-09-28T02:05:51.029Z,19.95
2022-09-28T02:08:38.926Z,19.92
2022-09-28T02:11:15.767Z,19.55
2022-09-28T02:16:19.764Z,19.60
2022-09-28T02:18:49.692Z,19.35
2022-09-28T02:21:38.440Z,18.85
2022-09-28T02:24:20.634Z,19.25
2022-09-28T02:26:50.671Z,19.92
2022-09-28T02:29:20.590Z,19.52
2022-09-28T02:31:47.221Z,18.98
2022-09-28T02:34:13.913Z,16.58
2022-09-28T02:36:40.598Z,16.65
2022-09-28T02:39:14.200Z,17.75
2022-09-28T02:41:50.252Z,15.90
2022-09-28T02:44:48.913Z,17.13
2022-09-28T02:47:54.509Z,17.92
2022-09-28T02:50:51.484Z,17.45
2022-09-28T02:53:45.461Z,16.50
2022-09-28T02:56:37.090Z,16.92
2022-09-28T02:59:42.676Z,17.95
2022-09-28T03:02:36.962Z,18.17
2022-09-28T03:05:06.600Z,19.55
2022-09-28T03:08:00.335Z,20.15
2022-09-28T03:10:43.251Z,20.30
2022-09-28T03:13:12.023Z,18.63
2022-09-28T03:15:38.941Z,20.42
2022-09-28T03:18:05.597Z,21.10
2022-09-28T03:20:33.486Z,20.95
2022-09-28T03:23:23.368Z,21.13
2022-09-28T03:25:47.386Z,19.08
2022-09-28T03:28:14.434Z,20.85
2022-09-28T03:30:42.214Z,20.25
2022-09-28T03:33:08.988Z,20.02
2022-09-28T03:35:35.659Z,21.88
2022-09-28T03:38:02.323Z,22.83
2022-09-28T03:40:30.984Z,22.50
2022-09-28T03:42:57.729Z,22.95
2022-09-28T03:45:25.158Z,22.88
2022-09-28T03:47:52.247Z,23.67
2022-09-28T03:50:18.991Z,23.15
2022-09-28T03:52:45.637Z,24.38
2022-09-28T03:55:12.385Z,24.45
2022-09-28T03:57:39.069Z,22.85
2022-09-28T04:00:06.565Z,24.08
2022-09-28T04:02:40.408Z,22.52
2022-09-28T04:05:07.192Z,22.15
2022-09-28T04:07:33.805Z,23.45
2022-09-28T04:10:00.432Z,22.95
2022-09-28T04:12:27.082Z,22.95
2022-09-28T04:14:53.943Z,23.15
2022-09-28T04:17:20.550Z,21.77
2022-09-28T04:19:48.033Z,20.60
2022-09-28T04:22:37.630Z,20.33
2022-09-28T04:25:04.989Z,20.48
2022-09-28T04:27:50.292Z,18.80
2022-09-28T04:30:17.517Z,19.50
2022-09-28T04:32:48.464Z,19.08
2022-09-28T04:35:15.473Z,20.13
2022-09-28T04:37:42.111Z,20.15
2022-09-28T04:40:09.173Z,19.90
2022-09-28T04:42:36.586Z,19.77
2022-09-28T04:45:04.765Z,19.50
2022-09-28T04:47:33.406Z,20.08
2022-09-28T04:50:18.568Z,20.50
2022-09-28T04:53:04.105Z,19.55
2022-09-28T04:55:32.447Z,20.33
2022-09-28T04:58:03.280Z,19.48
2022-09-28T05:00:35.841Z,19.85
2022-09-28T05:03:28.145Z,19.42
2022-09-28T05:06:17.950Z,19.67
2022-09-28T05:08:48.669Z,20.02
2022-09-28T05:11:16.119Z,21.33
2022-09-28T05:13:45.400Z,20.73
2022-09-28T05:16:15.874Z,19.60
2022-09-28T05:21:29.865Z,18.38
2022-09-28T05:23:58.203Z,18.60
2022-09-28T05:26:25.227Z,19.60
2022-09-28T05:28:51.908Z,19.77
2022-09-28T05:31:41.521Z,19.80
2022-09-28T05:34:25.546Z,19.30
2022-09-28T05:36:53.620Z,18.23
2022-09-28T05:39:20.599Z,19.60
2022-09-28T05:41:47.205Z,18.88
2022-09-28T05:44:13.877Z,18.20
2022-09-28T05:46:40.989Z,18.02
2022-09-28T05:49:09.430Z,17.45
2022-09-28T05:51:36.695Z,17.85
2022-09-28T05:54:06.176Z,17.48
2022-09-28T05:56:35.478Z,16.83
2022-09-28T05:59:06.217Z,16.55
2022-09-28T06:01:32.927Z,17.65
2022-09-28T06:04:01.416Z,17.67
2022-09-28T06:06:28.024Z,16.77
2022-09-28T06:08:54.665Z,17.38
2022-09-28T06:11:33.012Z,16.65
2022-09-28T06:14:05.154Z,17.52
2022-09-28T06:16:32.443Z,18.38
2022-09-28T06:18:59.074Z,17.42
2022-09-28T06:21:42.097Z,16.70
2022-09-28T06:24:08.895Z,17.63
2022-09-28T06:26:36.537Z,18.73
2022-09-28T06:29:04.154Z,17.63
2022-09-28T06:31:31.293Z,17.13
2022-09-28T06:33:57.925Z,19.33
2022-09-28T06:36:24.545Z,18.75
2022-09-28T06:38:51.195Z,17.83
2022-09-28T06:41:18.329Z,18.13
2022-09-28T06:43:47.394Z,17.92
2022-09-28T06:46:32.789Z,17.55
2022-09-28T06:49:31.712Z,17.02
2022-09-28T06:52:11.806Z,17.48
2022-09-28T06:55:01.765Z,17.48
2022-09-28T06:57:46.892Z,18.30
2022-09-28T07:00:14.335Z,18.63
2022-09-28T07:02:43.628Z,19.67
2022-09-28T07:05:45.902Z,18.15
2022-09-28T07:08:35.506Z,17.58
2022-09-28T07:11:26.846Z,18.02
2022-09-28T07:14:41.112Z,21.65
2022-09-28T07:17:13.574Z,19.77
2022-09-28T07:19:41.622Z,17.13
2022-09-28T07:22:08.184Z,16.90
2022-09-28T07:24:34.753Z,16.40
2022-09-28T07:27:20.194Z,16.77
2022-09-28T07:30:14.216Z,16.75
2022-09-28T07:32:55.941Z,17.05
2022-09-28T07:35:37.361Z,14.95
2022-09-28T07:38:07.934Z,14.98
2022-09-28T07:40:54.718Z,14.95
2022-09-28T07:43:22.524Z,14.63
2022-09-28T07:45:54.802Z,14.10
2022-09-28T07:48:22.802Z,13.48
2022-09-28T07:51:11.303Z,13.57
2022-09-28T07:53:40.246Z,13.77
2022-09-28T07:56:19.527Z,13.88
2022-09-28T07:58:53.653Z,13.73
2022-09-28T08:01:43.058Z,13.80
2022-09-28T08:04:13.720Z,14.65
2022-09-28T08:06:42.418Z,13.23
2022-09-28T08:09:11.017Z,14.23
2022-09-28T08:11:57.753Z,13.50
2022-09-28T08:14:37.526Z,12.60
2022-09-28T08:17:23.300Z,11.88
2022-09-28T08:20:12.974Z,11.48
2022-09-28T08:22:39.862Z,11.27
2022-09-28T08:25:07.168Z,11.10
2022-09-28T08:27:33.817Z,10.60
2022-09-28T08:30:01.378Z,10.63
2022-09-28T08:32:38.935Z,9.88
2022-09-28T08:35:25.700Z,9.05
2022-09-28T08:38:09.170Z,8.07
2022-09-28T08:41:39.513Z,7.68
2022-09-28T08:44:49.628Z,7.72
2022-09-28T08:48:04.054Z,7.03
2022-09-28T08:50:45.781Z,7.28
2022-09-28T08:53:48.197Z,5.20
2022-09-28T08:56:39.218Z,5.78
2022-09-28T08:59:20.763Z,6.30
2022-09-28T09:04:26.300Z,4.97
2022-09-28T09:07:15.917Z,5.13
2022-09-28T09:10:18.419Z,3.78
2022-09-28T09:16:04.911Z,3.83
2022-09-28T09:19:14.409Z,3.38
2022-09-28T09:22:05.172Z,4.05
2022-09-28T09:24:47.926Z,3.75
2022-09-28T09:27:31.199Z,2.75
2022-09-28T09:30:04.089Z,2.30
2022-09-28T09:32:54.324Z,1.95
2022-09-28T09:35:31.923Z,2.55
2022-09-28T09:38:36.229Z,2.50
2022-09-28T09:41:46.465Z,2.10
2022-09-28T09:44:57.114Z,2.60
2022-09-28T09:47:46.972Z,2.05
2022-09-28T09:50:40.604Z,1.90
2022-09-28T09:53:41.845Z,1.38
2022-09-28T09:56:19.955Z,1.60
2022-09-28T09:59:18.744Z,1.27
2022-09-28T10:02:03.640Z,1.33
2022-09-28T10:04:46.991Z,1.63
2022-09-28T10:07:33.367Z,1.50
2022-09-28T10:10:02.327Z,1.20
2022-09-28T10:12:40.139Z,0.90
2022-09-28T10:15:07.941Z,1.05
2022-09-28T10:17:46.781Z,1.30
2022-09-28T10:20:36.932Z,1.23
2022-09-28T10:23:29.218Z,0.93
2022-09-28T10:26:25.069Z,0.90
2022-09-28T10:28:54.552Z,0.80
2022-09-28T10:31:45.249Z,1.00
2022-09-28T10:34:29.801Z,1.10
2022-09-28T10:37:04.072Z,0.90
2022-09-28T10:39:55.607Z,0.98
2022-09-28T10:42:28.348Z,0.90
2022-09-28T10:45:05.150Z,1.00
2022-09-28T10:47:35.500Z,1.05
2022-09-28T10:50:19.759Z,0.95
2022-09-28T10:52:46.586Z,1.50
2022-09-28T10:55:39.297Z,1.20
2022-09-28T10:58:26.932Z,1.15
2022-09-28T11:01:00.382Z,2.25
2022-09-28T11:03:29.886Z,2.85
2022-09-28T11:06:07.075Z,4.13
2022-09-28T11:08:41.730Z,1.40
2022-09-28T11:11:14.387Z,0.75
2022-09-28T11:14:12.142Z,0.68
2022-09-28T11:16:38.847Z,0.80
2022-09-28T11:19:29.408Z,1.40
2022-09-28T11:21:56.009Z,0.77
2022-09-28T11:24:31.340Z,0.60
2022-09-28T11:27:02.332Z,0.60
2022-09-28T11:29:38.388Z,1.38
2022-09-28T11:35:51.570Z,0.50
2022-09-28T11:38:40.673Z,1.63
2022-09-28T11:41:28.826Z,1.50
2022-09-28T11:44:16.894Z,1.73
2022-09-28T11:47:11.787Z,0.93
2022-09-28T11:49:48.282Z,0.70
2022-09-28T11:55:11.939Z,1.20
2022-09-28T11:57:43.129Z,1.45
2022-09-28T12:00:31.025Z,2.70
2022-09-28T12:03:12.122Z,1.17
2022-09-28T12:05:44.406Z,1.20
2022-09-28T12:08:28.532Z,1.20
2022-09-28T12:11:27.060Z,0.90
2022-09-28T12:14:27.114Z,0.70
2022-09-28T12:17:06.933Z,0.82
2022-09-28T12:19:44.005Z,0.80
2022-09-28T12:22:21.991Z,0.52
2022-09-28T12:24:56.248Z,1.13
2022-09-28T12:27:47.722Z,0.80
2022-09-28T12:30:19.331Z,1.25
2022-09-28T12:33:06.990Z,1.70
2022-09-28T12:36:08.715Z,1.50
2022-09-28T12:39:21.798Z,2.33
2022-09-28T12:42:32.609Z,1.90
2022-09-28T12:45:12.285Z,0.90
2022-09-28T12:47:57.101Z,1.70
2022-09-28T12:50:39.900Z,3.33
2022-09-28T12:53:47.225Z,2.45
2022-09-28T12:56:47.166Z,2.42
2022-09-28T12:59:35.891Z,1.48
2022-09-28T13:02:21.560Z,1.65
2022-09-28T13:05:16.429Z,1.60
2022-09-28T13:08:08.340Z,1.50
2022-09-28T13:10:55.177Z,1.70
2022-09-28T13:13:41.127Z,1.40
2022-09-28T13:16:34.585Z,1.35
2022-09-28T13:19:16.800Z,2.30
2022-09-28T13:22:13.017Z,2.70
2022-09-28T13:24:44.199Z,4.72
2022-09-28T13:27:15.527Z,1.40
2022-09-28T13:29:43.365Z,0.95
2022-09-28T13:32:12.576Z,0.80
2022-09-28T13:34:39.946Z,1.40
2022-09-28T13:37:20.269Z,1.10
2022-09-28T13:39:56.695Z,0.80
2022-09-28T13:42:42.286Z,1.00
2022-09-28T13:45:14.863Z,1.20
2022-09-28T13:48:04.719Z,1.40
2022-09-28T13:51:01.125Z,0.70
2022-09-28T13:53:36.830Z,1.30
2022-09-28T13:56:30.151Z,0.80
2022-09-28T13:59:17.297Z,0.57
2022-09-28T14:02:13.459Z,0.63
2022-09-28T14:05:25.477Z,0.70
2022-09-28T14:08:09.150Z,1.00
2022-09-28T14:10:53.161Z,0.75
2022-09-28T14:13:41.801Z,0.60
2022-09-28T14:16:17.701Z,0.80
2022-09-28T14:18:49.014Z,0.60
2022-09-28T14:21:47.046Z,0.70
2022-09-28T14:24:26.550Z,0.60
2022-09-28T14:27:15.020Z,0.50
2022-09-28T14:29:45.997Z,0.73
2022-09-28T14:32:12.897Z,0.65
2022-09-28T14:34:45.405Z,0.70
2022-09-28T14:37:49.640Z,0.70
2022-09-28T14:40:48.697Z,0.60
2022-09-28T14:43:45.240Z,0.70
2022-09-28T14:46:12.173Z,0.80
2022-09-28T14:48:53.641Z,0.70
2022-09-28T14:51:26.503Z,1.50
2022-09-28T14:54:10.116Z,1.50
2022-09-28T14:56:52.503Z,1.50
2022-09-28T14:59:30.634Z,1.00
2022-09-28T15:02:14.937Z,1.65
2022-09-28T15:05:16.886Z,1.58
2022-09-28T15:07:47.871Z,1.20
2022-09-28T15:10:31.397Z,1.10
2022-09-28T15:13:01.320Z,1.00
2022-09-28T15:15:35.335Z,1.02
2022-09-28T15:18:45.800Z,0.65
2022-09-28T15:21:13.484Z,1.88
2022-09-28T15:23:45.273Z,1.65
2022-09-28T15:26:31.020Z,1.27
2022-09-28T15:29:04.077Z,0.80
2022-09-28T15:31:36.045Z,1.10
2022-09-28T15:34:21.591Z,0.80
2022-09-28T15:36:50.102Z,0.90
2022-09-28T15:39:32.185Z,0.75
2022-09-28T15:41:59.902Z,0.90
2022-09-28T15:44:35.223Z,0.95
2022-09-28T15:47:13.845Z,1.05
2022-09-28T15:49:57.108Z,1.10
2022-09-28T15:52:38.824Z,1.00
2022-09-28T15:55:31.381Z,1.00
2022-09-28T15:58:07.479Z,0.98
2022-09-28T16:00:34.955Z,1.20
2022-09-28T16:03:06.672Z,0.95
2022-09-28T16:05:46.633Z,1.13
2022-09-28T16:08:22.029Z,1.00
2022-09-28T16:11:12.602Z,1.30
2022-09-28T16:14:02.037Z,1.58
2022-09-28T16:16:32.785Z,1.60
2022-09-28T16:19:02.002Z,1.20
2022-09-28T16:21:47.967Z,1.20
2022-09-28T16:24:33.150Z,1.60
2022-09-28T16:27:21.801Z,1.80
2022-09-28T16:30:13.149Z,1.75
2022-09-28T16:32:50.859Z,1.85
2022-09-28T16:35:22.531Z,2.88
2022-09-28T16:38:03.278Z,2.78
2022-09-28T16:40:32.163Z,3.80
2022-09-28T16:43:03.121Z,6.05
2022-09-28T16:45:29.842Z,3.33
2022-09-28T16:47:57.572Z,3.13
2022-09-28T16:50:25.463Z,4.20
2022-09-28T16:53:20.338Z,3.92
2022-09-28T16:55:49.450Z,4.88
2022-09-28T16:58:16.126Z,3.88
2022-09-28T17:00:43.413Z,2.70
2022-09-28T17:03:13.888Z,4.15
2022-09-28T17:05:40.864Z,7.95
2022-09-28T17:08:13.206Z,6.25
2022-09-28T17:11:13.540Z,6.85
2022-09-28T17:13:37.734Z,5.13
2022-09-28T17:16:10.372Z,4.30
2022-09-28T17:18:38.939Z,3.40
2022-09-28T17:21:15.732Z,3.92
2022-09-28T17:23:43.504Z,2.40
2022-09-28T17:26:27.661Z,2.42
2022-09-28T17:28:54.428Z,2.13
2022-09-28T17:31:21.150Z,2.30
2022-09-28T17:33:47.841Z,2.70
2022-09-28T17:36:16.941Z,2.90
2022-09-28T17:38:44.818Z,3.00
2022-09-28T17:41:18.087Z,3.60
2022-09-28T17:43:47.096Z,4.07
2022-09-28T17:46:26.122Z,3.15
2022-09-28T17:48:53.294Z,4.05
2022-09-28T17:51:20.153Z,6.30
2022-09-28T17:53:46.765Z,11.30
2022-09-28T17:56:13.447Z,8.88
2022-09-28T17:58:40.031Z,10.27
2022-09-28T18:01:07.040Z,9.65
2022-09-28T18:03:33.868Z,6.55
2022-09-28T18:06:06.552Z,5.78
2022-09-28T18:08:34.041Z,7.00
2022-09-28T18:11:01.601Z,11.00
2022-09-28T18:13:28.386Z,6.15
2022-09-28T18:15:55.838Z,5.68
2022-09-28T18:18:23.937Z,5.80
2022-09-28T18:20:50.799Z,6.65
2022-09-28T18:23:18.022Z,12.07
2022-09-28T18:25:45.741Z,13.35
2022-09-28T18:28:13.625Z,9.63
2022-09-28T18:30:42.360Z,8.95
2022-09-28T18:33:09.615Z,9.25
2022-09-28T18:35:36.779Z,6.75
2022-09-28T18:38:07.737Z,9.30
2022-09-28T18:40:35.365Z,9.73
2022-09-28T18:43:02.921Z,16.00
2022-09-28T18:45:29.669Z,17.13
2022-09-28T18:47:57.090Z,12.05
2022-09-28T18:50:23.800Z,9.13
2022-09-28T18:52:52.912Z,12.38
2022-09-28T18:55:19.959Z,10.40
2022-09-28T18:57:47.482Z,9.63
2022-09-28T19:00:15.149Z,10.85
2022-09-28T19:02:42.006Z,9.57
2022-09-28T19:05:08.869Z,8.57
2022-09-28T19:07:35.620Z,8.82
2022-09-28T19:10:02.538Z,8.70
2022-09-28T19:12:33.060Z,8.20
2022-09-28T19:14:59.724Z,7.40
2022-09-28T19:17:26.491Z,7.50
2022-09-28T19:19:53.104Z,7.63
2022-09-28T19:22:19.713Z,7.95
2022-09-28T19:24:46.373Z,7.32
2022-09-28T19:27:12.994Z,7.32
2022-09-28T19:29:39.682Z,7.10
2022-09-28T19:32:06.259Z,7.20
2022-09-28T19:34:32.877Z,5.97
2022-09-28T19:37:03.702Z,5.65
2022-09-28T19:39:30.983Z,6.47
2022-09-28T19:41:59.692Z,6.50
2022-09-28T19:44:28.288Z,6.53
2022-09-28T19:46:57.446Z,6.43
2022-09-28T19:49:26.053Z,7.07
2022-09-28T19:52:13.871Z,7.28
2022-09-28T19:54:56.640Z,7.43
2022-09-28T19:57:29.326Z,7.38
2022-09-28T20:00:01.690Z,7.20
2022-09-28T20:02:32.447Z,6.75
2022-09-28T20:04:59.177Z,7.10
2022-09-28T20:07:25.809Z,7.25
2022-09-28T20:09:52.432Z,6.47
2022-09-28T20:12:19.054Z,6.20
2022-09-28T20:14:45.769Z,6.88
2022-09-28T20:17:12.476Z,6.45
2022-09-28T20:19:39.242Z,6.55
2022-09-28T20:22:05.892Z,6.55
2022-09-28T20:24:32.860Z,7.45
2022-09-28T20:27:00.597Z,7.05
2022-09-28T20:29:27.217Z,7.45
2022-09-28T20:31:53.794Z,7.45
2022-09-28T20:34:20.520Z,7.15
2022-09-28T20:36:49.439Z,7.65
2022-09-28T20:39:16.198Z,8.07
2022-09-28T20:41:42.888Z,7.22
2022-09-28T20:44:09.870Z,7.50
2022-09-28T20:46:36.875Z,7.15
2022-09-28T20:49:04.624Z,7.40
2022-09-28T20:51:31.693Z,7.03
2022-09-28T20:53:58.878Z,6.78
2022-09-28T20:56:31.350Z,7.90
2022-09-28T20:58:58.002Z,6.80
2022-09-28T21:01:27.359Z,7.20
2022-09-28T21:04:00.992Z,6.30
2022-09-28T21:06:35.937Z,6.88
2022-09-28T21:09:03.671Z,6.95
2022-09-28T21:11:30.288Z,7.13
2022-09-28T21:13:59.313Z,8.05
2022-09-28T21:16:28.414Z,7.78
2022-09-28T21:18:55.097Z,8.48
2022-09-28T21:21:23.078Z,8.95
2022-09-28T21:23:54.050Z,8.27
2022-09-28T21:26:26.147Z,9.15
2022-09-28T21:29:00.348Z,10.13
2022-09-28T21:31:30.651Z,9.20
2022-09-28T21:33:58.104Z,9.32
2022-09-28T21:36:25.467Z,9.75
2022-09-28T21:38:53.415Z,10.52
2022-09-28T21:41:20.045Z,10.15
2022-09-28T21:43:46.718Z,9.73
2022-09-28T21:46:13.541Z,9.13
2022-09-28T21:48:40.383Z,9.13
2022-09-28T21:51:10.021Z,8.85
2022-09-28T21:53:38.051Z,9.88
2022-09-28T21:56:06.820Z,10.02
2022-09-28T21:58:35.313Z,9.38
2022-09-28T22:01:06.901Z,9.82
2022-09-28T22:03:35.742Z,9.73
2022-09-28T22:06:05.995Z,9.82
2022-09-28T22:08:33.362Z,9.80
2022-09-28T22:11:01.919Z,8.43
2022-09-28T22:13:29.380Z,8.95
2022-09-28T22:15:59.915Z,9.23
2022-09-28T22:18:28.370Z,10.13
2022-09-28T22:21:10.045Z,9.65
2022-09-28T22:23:38.089Z,10.38
2022-09-28T22:26:17.768Z,11.63
2022-09-28T22:28:52.612Z,11.38
2022-09-28T22:31:21.478Z,11.45
2022-09-28T22:33:48.570Z,12.00
2022-09-28T22:36:16.573Z,11.05
2022-09-28T22:38:44.502Z,11.15
2022-09-28T22:41:11.837Z,11.68
2022-09-28T22:43:38.761Z,11.70
2022-09-28T22:46:11.224Z,11.27
2022-09-28T22:48:38.430Z,12.45
2022-09-28T22:51:06.489Z,10.90
2022-09-28T22:53:34.278Z,12.48
2022-09-28T22:56:01.535Z,11.70
2022-09-28T22:58:28.097Z,12.27
2022-09-28T23:00:56.973Z,12.20
2022-09-28T23:03:23.977Z,12.27
2022-09-28T23:05:55.447Z,12.70
2022-09-28T23:08:23.284Z,12.45
2022-09-28T23:10:50.781Z,12.15
2022-09-28T23:13:17.784Z,11.70
2022-09-28T23:15:53.805Z,13.23
2022-09-28T23:18:20.638Z,12.37
2022-09-28T23:20:58.511Z,14.63
2022-09-28T23:23:25.976Z,12.82
2022-09-28T23:25:53.280Z,12.05
2022-09-28T23:28:21.339Z,13.63
2022-09-28T23:30:48.675Z,13.40
2022-09-28T23:33:17.147Z,11.85
2022-09-28T23:35:44.384Z,11.93
2022-09-28T23:38:17.831Z,12.35
2022-09-28T23:40:47.776Z,12.45
2022-09-28T23:43:14.541Z,12.15
2022-09-28T23:45:43.823Z,11.52
2022-09-28T23:48:10.755Z,11.45
2022-09-28T23:50:37.392Z,12.07
2022-09-28T23:53:04.296Z,12.45
2022-09-28T23:55:30.865Z,12.20
2022-09-28T23:57:58.640Z,13.23
